Terminal Aerodrome Forecast
Issued by NWS

Home | Current Version | Previous Version | Text Only | Print | Product List | Glossary On
Versions: 1 2 3 4 5 6 7 8 9 10 11 12 13 14 15 16
000
FTUS43 KFGF 182142 AAA
TAFBJI
TAF AMD
KBJI 182142Z 1822/1918 VRB05KT P6SM BKN200
      TEMPO 1822/1824 BKN014
     FM191400 23006KT P6SM BKN110=

USA.gov is the U.S. government's official web portal to all federal, state and local government web resources and services.